createdAt,value
2022-08-30T00:00:41.428Z,99610.63
2022-08-30T00:03:10.560Z,99605.13
2022-08-30T00:05:38.701Z,99613.09
2022-08-30T00:08:08.099Z,99615.84
2022-08-30T00:10:36.139Z,99604.03
2022-08-30T00:13:04.177Z,99615.06
2022-08-30T00:15:32.291Z,99612.81
2022-08-30T00:18:00.333Z,99608.72
2022-08-30T00:20:30.616Z,99613.38
2022-08-30T00:22:58.605Z,99622.75
2022-08-30T00:25:28.189Z,99613.69
2022-08-30T00:27:56.255Z,99612.31
2022-08-30T00:30:24.284Z,99610.41
2022-08-30T00:32:52.272Z,99611.22
2022-08-30T00:35:21.081Z,99606.81
2022-08-30T00:37:49.261Z,99598.88
2022-08-30T00:40:17.358Z,99606.81
2022-08-30T00:42:50.098Z,99611.22
2022-08-30T00:45:20.683Z,99602.44
2022-08-30T00:47:48.662Z,99611.78
2022-08-30T00:50:17.416Z,99618.88
2022-08-30T00:52:47.425Z,99611.72
2022-08-30T00:55:16.174Z,99617.75
2022-08-30T00:57:44.419Z,99611.72
2022-08-30T01:00:15.635Z,99611.97
2022-08-30T01:02:43.875Z,99619.94
2022-08-30T01:05:16.012Z,99625.41
2022-08-30T01:07:44.210Z,99627.03
2022-08-30T01:10:13.136Z,99619.00
2022-08-30T01:12:41.722Z,99617.06
2022-08-30T01:15:10.530Z,99631.88
2022-08-30T01:17:41.493Z,99632.41
2022-08-30T01:20:12.640Z,99632.94
2022-08-30T01:22:42.483Z,99630.69
2022-08-30T01:25:14.640Z,99634.53
2022-08-30T01:27:44.372Z,99627.59
2022-08-30T01:30:13.162Z,99635.25
2022-08-30T01:32:42.069Z,99640.41
2022-08-30T01:35:10.921Z,99636.25
2022-08-30T01:37:39.084Z,99640.84
2022-08-30T01:40:08.375Z,99639.50
2022-08-30T01:42:38.553Z,99640.84
2022-08-30T01:45:07.347Z,99643.03
2022-08-30T01:47:35.376Z,99642.19
2022-08-30T01:50:03.499Z,99650.69
2022-08-30T01:52:31.548Z,99645.44
2022-08-30T01:54:59.533Z,99650.66
2022-08-30T01:57:28.413Z,99647.34
2022-08-30T01:59:57.775Z,99649.00
2022-08-30T02:02:27.109Z,99645.09
2022-08-30T02:04:55.157Z,99651.13
2022-08-30T02:07:23.259Z,99653.28
2022-08-30T02:09:51.434Z,99652.16
2022-08-30T02:12:19.445Z,99643.91
2022-08-30T02:14:47.436Z,99651.56
2022-08-30T02:17:17.038Z,99650.47
2022-08-30T02:19:45.055Z,99657.56
2022-08-30T02:22:13.090Z,99652.63
2022-08-30T02:24:41.092Z,99649.28
2022-08-30T02:27:09.099Z,99652.00
2022-08-30T02:29:37.120Z,99661.25
2022-08-30T02:32:05.433Z,99650.00
2022-08-30T02:34:34.896Z,99656.56
2022-08-30T02:37:02.920Z,99651.09
2022-08-30T02:39:30.911Z,99662.31
2022-08-30T02:41:58.921Z,99661.16
2022-08-30T02:44:26.930Z,99658.66
2022-08-30T02:46:54.897Z,99659.47
2022-08-30T02:49:33.313Z,99666.03
2022-08-30T02:52:04.188Z,99656.69
2022-08-30T02:54:33.406Z,99665.16
2022-08-30T02:57:04.738Z,99669.25
2022-08-30T02:59:33.070Z,99669.50
2022-08-30T03:02:01.118Z,99667.91
2022-08-30T03:04:29.471Z,99659.38
2022-08-30T03:06:57.520Z,99658.31
2022-08-30T03:09:26.946Z,99663.78
2022-08-30T03:11:54.951Z,99671.00
2022-08-30T03:14:22.965Z,99671.88
2022-08-30T03:16:51.227Z,99672.69
2022-08-30T03:19:19.290Z,99675.94
2022-08-30T03:21:47.355Z,99675.94
2022-08-30T03:24:15.345Z,99686.34
2022-08-30T03:26:46.598Z,99689.03
2022-08-30T03:29:14.810Z,99694.75
2022-08-30T03:31:52.379Z,99691.72
2022-08-30T03:34:21.979Z,99701.03
2022-08-30T03:36:50.038Z,99700.19
2022-08-30T03:39:18.021Z,99692.22
2022-08-30T03:41:47.394Z,99700.44
2022-08-30T03:44:15.367Z,99700.69
2022-08-30T03:46:43.439Z,99699.88
2022-08-30T03:49:11.446Z,99703.19
2022-08-30T03:51:39.433Z,99700.44
2022-08-30T03:54:07.454Z,99706.50
2022-08-30T03:56:35.439Z,99711.16
2022-08-30T03:59:05.000Z,99711.97
2022-08-30T04:01:33.137Z,99715.56
2022-08-30T04:04:01.226Z,99719.13
2022-08-30T04:06:30.734Z,99695.75
2022-08-30T04:08:58.702Z,99719.41
2022-08-30T04:11:26.734Z,99720.31
2022-08-30T04:13:56.210Z,99717.03
2022-08-30T04:16:25.632Z,99725.00
2022-08-30T04:18:53.692Z,99727.47
2022-08-30T04:21:21.993Z,99733.28
2022-08-30T04:23:50.179Z,99728.75
2022-08-30T04:26:18.324Z,99738.16
2022-08-30T04:28:46.329Z,99723.97
2022-08-30T04:31:15.588Z,99735.69
2022-08-30T04:33:44.993Z,99737.69
2022-08-30T04:36:13.862Z,99727.53
2022-08-30T04:38:42.050Z,99740.88
2022-08-30T04:41:11.365Z,99725.88
2022-08-30T04:43:39.613Z,99738.03
2022-08-30T04:46:08.311Z,99742.63
2022-08-30T04:48:36.607Z,99736.97
2022-08-30T04:51:06.758Z,99739.78
2022-08-30T04:53:34.824Z,99750.66
2022-08-30T04:56:02.926Z,99746.53
2022-08-30T04:58:30.934Z,99748.81
2022-08-30T05:00:58.953Z,99747.75
2022-08-30T05:03:26.991Z,99749.94
2022-08-30T05:05:54.980Z,99757.09
2022-08-30T05:08:24.883Z,99763.56
2022-08-30T05:10:53.245Z,99769.59
2022-08-30T05:13:26.248Z,99764.91
2022-08-30T05:16:05.171Z,99780.03
2022-08-30T05:18:33.297Z,99777.13
2022-08-30T05:21:05.515Z,99777.84
2022-08-30T05:23:35.027Z,99774.72
2022-08-30T05:26:07.612Z,99776.59
2022-08-30T05:28:35.865Z,99776.38
2022-08-30T05:31:03.973Z,99785.41
2022-08-30T05:33:32.081Z,99786.66
2022-08-30T05:36:07.589Z,99785.16
2022-08-30T05:38:36.981Z,99775.41
2022-08-30T05:41:10.735Z,99785.75
2022-08-30T05:43:39.270Z,99788.44
2022-08-30T05:46:08.329Z,99794.47
2022-08-30T05:48:36.432Z,99794.53
2022-08-30T05:51:06.046Z,99803.06
2022-08-30T05:53:34.083Z,99794.47
2022-08-30T05:56:03.965Z,99796.69
2022-08-30T05:58:32.148Z,99796.13
2022-08-30T06:01:00.251Z,99793.38
2022-08-30T06:03:28.471Z,99794.75
2022-08-30T06:05:56.560Z,99801.78
2022-08-30T06:08:24.639Z,99795.50
2022-08-30T06:10:52.716Z,99798.41
2022-08-30T06:13:22.399Z,99804.19
2022-08-30T06:15:51.268Z,99801.94
2022-08-30T06:18:19.712Z,99812.72
2022-08-30T06:20:56.411Z,99809.47
2022-08-30T06:23:24.520Z,99809.66
2022-08-30T06:25:52.481Z,99809.78
2022-08-30T06:28:21.929Z,99811.38
2022-08-30T06:30:49.929Z,99810.44
2022-08-30T06:33:18.005Z,99827.34
2022-08-30T06:35:58.296Z,99820.97
2022-08-30T06:38:27.356Z,99826.91
2022-08-30T06:40:55.369Z,99825.88
2022-08-30T06:43:24.718Z,99827.44
2022-08-30T06:45:52.735Z,99821.25
2022-08-30T06:48:20.735Z,99827.75
2022-08-30T06:50:54.581Z,99828.03
2022-08-30T06:53:22.644Z,99829.16
2022-08-30T06:55:56.569Z,99827.00
2022-08-30T06:58:25.994Z,99831.41
2022-08-30T07:00:53.995Z,99833.78
2022-08-30T07:03:22.007Z,99834.59
2022-08-30T07:05:50.133Z,99834.09
2022-08-30T07:08:18.336Z,99838.91
2022-08-30T07:10:46.552Z,99820.16
2022-08-30T07:13:14.624Z,99823.25
2022-08-30T07:15:44.355Z,99833.84
2022-08-30T07:18:30.162Z,99841.59
2022-08-30T07:20:58.317Z,99827.84
2022-08-30T07:23:26.312Z,99826.56
2022-08-30T07:25:54.323Z,99830.94
2022-08-30T07:28:22.638Z,99833.47
2022-08-30T07:30:52.368Z,99827.66
2022-08-30T07:33:20.379Z,99829.69
2022-08-30T07:35:48.354Z,99830.63
2022-08-30T07:38:16.353Z,99838.97
2022-08-30T07:40:44.563Z,99837.88
2022-08-30T07:43:12.624Z,99842.13
2022-08-30T07:45:40.799Z,99839.97
2022-08-30T07:48:11.654Z,99839.84
2022-08-30T07:50:39.904Z,99839.31
2022-08-30T07:53:10.756Z,99836.22
2022-08-30T07:55:39.558Z,99828.13
2022-08-30T07:58:07.644Z,99833.03
2022-08-30T08:00:35.705Z,99836.84
2022-08-30T08:03:07.570Z,99848.47
2022-08-30T08:05:40.078Z,99844.47
2022-08-30T08:08:08.202Z,99843.25
2022-08-30T08:10:37.235Z,99838.91
2022-08-30T08:13:05.291Z,99848.00
2022-08-30T08:15:33.389Z,99840.16
2022-08-30T08:18:01.603Z,99833.97
2022-08-30T08:20:29.794Z,99829.13
2022-08-30T08:22:59.264Z,99827.38
2022-08-30T08:25:27.398Z,99834.03
2022-08-30T08:27:55.381Z,99835.41
2022-08-30T08:30:23.946Z,99819.72
2022-08-30T08:32:52.192Z,99828.13
2022-08-30T08:35:20.210Z,99815.00
2022-08-30T08:37:48.509Z,99828.13
2022-08-30T08:40:19.206Z,99827.78
2022-08-30T08:42:55.799Z,99818.63
2022-08-30T08:45:28.537Z,99824.22
2022-08-30T08:48:04.034Z,99810.53
2022-08-30T08:50:32.460Z,99828.13
2022-08-30T08:53:46.322Z,99823.72
2022-08-30T08:56:17.299Z,99820.06
2022-08-30T08:58:47.103Z,99830.84
2022-08-30T09:01:16.910Z,99822.78
2022-08-30T09:03:45.191Z,99821.28
2022-08-30T09:06:24.449Z,99816.84
2022-08-30T09:08:52.457Z,99817.38
2022-08-30T09:11:26.275Z,99808.81
2022-08-30T09:13:54.871Z,99809.78
2022-08-30T09:16:48.280Z,99808.34
2022-08-30T09:19:29.564Z,99801.19
2022-08-30T09:22:03.658Z,99799.81
2022-08-30T09:24:39.087Z,99806.78
2022-08-30T09:27:23.835Z,99799.41
2022-08-30T09:29:54.298Z,99789.56
2022-08-30T09:32:27.385Z,99787.72
2022-08-30T09:34:55.359Z,99792.31
2022-08-30T09:37:33.094Z,99784.63
2022-08-30T09:40:01.450Z,99788.69
2022-08-30T09:42:31.181Z,99783.81
2022-08-30T09:45:10.649Z,99780.16
2022-08-30T09:47:40.740Z,99778.25
2022-08-30T09:50:10.867Z,99778.28
2022-08-30T09:52:43.968Z,99777.94
2022-08-30T09:55:20.028Z,99773.25
